createdAt,value
2023-05-16T00:02:28.265Z,99802.06
2023-05-16T00:05:31.027Z,99782.25
2023-05-16T00:08:33.262Z,99774.44
2023-05-16T00:11:35.777Z,99767.75
2023-05-16T00:14:38.024Z,99765.75
2023-05-16T00:17:41.047Z,99761.53
2023-05-16T00:20:43.246Z,99759.84
2023-05-16T00:23:45.671Z,99755.47
2023-05-16T00:26:47.896Z,99751.47
2023-05-16T00:29:50.368Z,99747.53
2023-05-16T00:32:55.491Z,99749.69
2023-05-16T00:35:58.871Z,99745.84
2023-05-16T00:39:01.261Z,99766.78
2023-05-16T00:42:03.900Z,99758.19
2023-05-16T00:45:07.457Z,99758.88
2023-05-16T00:48:12.433Z,99757.75
2023-05-16T00:51:14.686Z,99759.13
2023-05-16T00:54:17.253Z,99761.50
2023-05-16T00:57:19.800Z,99770.66
2023-05-16T01:00:22.639Z,99773.37
2023-05-16T01:03:24.919Z,99776.31
2023-05-16T01:06:27.918Z,99783.31
2023-05-16T01:09:31.328Z,99780.28
2023-05-16T01:13:07.173Z,99789.09
2023-05-16T01:16:16.428Z,99789.88
2023-05-16T01:19:32.872Z,99801.09
2023-05-16T01:22:51.573Z,99785.50
2023-05-16T01:26:18.587Z,99771.97
2023-05-16T01:29:21.013Z,99782.84
2023-05-16T01:32:23.558Z,99778.09
2023-05-16T01:35:26.114Z,99782.84
2023-05-16T01:38:38.932Z,99791.34
2023-05-16T01:42:08.927Z,99776.97
2023-05-16T01:45:29.320Z,99752.53
2023-05-16T01:48:39.220Z,99749.81
2023-05-16T01:51:41.854Z,99747.91
2023-05-16T01:54:45.845Z,99751.63
2023-05-16T01:57:49.833Z,99741.91
2023-05-16T02:01:00.127Z,99731.41
2023-05-16T02:04:02.711Z,99730.59
2023-05-16T02:07:05.386Z,99726.75
2023-05-16T02:10:08.387Z,99731.03
2023-05-16T02:13:10.859Z,99729.81
2023-05-16T02:16:13.377Z,99741.47
2023-05-16T02:19:16.656Z,99739.88
2023-05-16T02:22:18.958Z,99741.69
2023-05-16T02:25:21.496Z,99724.50
2023-05-16T02:28:23.641Z,99715.56
2023-05-16T02:31:35.431Z,99707.09
2023-05-16T02:34:37.720Z,99713.97
2023-05-16T02:37:40.790Z,99707.41
2023-05-16T02:40:43.363Z,99693.03
2023-05-16T02:43:47.085Z,99691.69
2023-05-16T02:46:49.537Z,99706.41
2023-05-16T02:49:52.338Z,99728.91
2023-05-16T02:52:54.485Z,99726.87
2023-05-16T02:55:56.975Z,99726.53
2023-05-16T02:59:00.334Z,99730.03
2023-05-16T03:02:03.719Z,99721.47
2023-05-16T03:05:06.345Z,99721.34
2023-05-16T03:08:08.807Z,99717.69
2023-05-16T03:11:11.170Z,99700.31
2023-05-16T03:14:15.799Z,99691.59
2023-05-16T03:17:17.943Z,99687.84
2023-05-16T03:20:20.781Z,99695.41
2023-05-16T03:23:23.338Z,99713.63
2023-05-16T03:26:25.862Z,99718.03
2023-05-16T03:29:28.057Z,99732.06
2023-05-16T03:32:30.645Z,99725.19
2023-05-16T03:35:33.774Z,99733.31
2023-05-16T03:38:36.787Z,99722.25
2023-05-16T03:41:38.946Z,99718.37
2023-05-16T03:44:41.587Z,99719.19
2023-05-16T03:47:44.139Z,99713.84
2023-05-16T03:50:46.650Z,99696.66
2023-05-16T03:53:48.768Z,99695.53
2023-05-16T03:56:51.197Z,99698.69
2023-05-16T03:59:53.349Z,99707.53
2023-05-16T04:02:56.081Z,99705.13
2023-05-16T04:05:58.765Z,99699.69
2023-05-16T04:09:00.890Z,99705.03
2023-05-16T04:12:03.583Z,99704.34
2023-05-16T04:15:08.928Z,99701.84
2023-05-16T04:18:12.699Z,99716.56
2023-05-16T04:21:15.390Z,99724.72
2023-05-16T04:24:18.220Z,99721.13
2023-05-16T04:27:21.400Z,99711.94
2023-05-16T04:30:25.175Z,99713.41
2023-05-16T04:33:27.591Z,99728.78
2023-05-16T04:36:31.626Z,99729.13
2023-05-16T04:39:35.195Z,99729.34
2023-05-16T04:42:37.704Z,99731.47
2023-05-16T04:45:39.950Z,99744.50
2023-05-16T04:48:42.424Z,99735.25
2023-05-16T04:51:44.639Z,99734.56
2023-05-16T04:54:47.143Z,99745.06
2023-05-16T04:57:49.328Z,99745.53
2023-05-16T05:00:52.457Z,99746.06
2023-05-16T05:03:54.582Z,99752.19
2023-05-16T05:06:57.901Z,99750.84
2023-05-16T05:10:00.197Z,99746.34
2023-05-16T05:13:02.669Z,99738.84
2023-05-16T05:16:05.997Z,99750.37
2023-05-16T05:19:09.087Z,99769.03
2023-05-16T05:22:11.972Z,99775.16
2023-05-16T05:25:14.924Z,99761.91
2023-05-16T05:28:17.126Z,99750.25
2023-05-16T05:31:19.669Z,99753.88
2023-05-16T05:34:22.184Z,99749.13
2023-05-16T05:37:25.486Z,99752.97
2023-05-16T05:40:27.875Z,99752.19
2023-05-16T05:43:30.419Z,99756.91
2023-05-16T05:46:33.801Z,99737.03
2023-05-16T05:49:36.528Z,99728.28
2023-05-16T05:52:38.860Z,99741.66
2023-05-16T05:55:42.269Z,99756.34
2023-05-16T05:58:45.389Z,99756.69
2023-05-16T06:01:52.494Z,99747.19
2023-05-16T06:04:55.154Z,99738.47
2023-05-16T06:07:57.442Z,99737.59
2023-05-16T06:11:00.803Z,99739.03
2023-05-16T06:14:03.026Z,99727.37
2023-05-16T06:17:09.949Z,99734.87
2023-05-16T06:20:15.708Z,99735.19
2023-05-16T06:23:21.166Z,99727.50
2023-05-16T06:26:24.563Z,99728.38
2023-05-16T06:29:27.056Z,99723.94
2023-05-16T06:32:29.542Z,99716.12
2023-05-16T06:35:32.060Z,99711.50
2023-05-16T06:38:34.266Z,99708.47
2023-05-16T06:41:36.723Z,99710.59
2023-05-16T06:44:38.988Z,99717.09
2023-05-16T06:50:50.865Z,99722.53
2023-05-16T06:53:53.340Z,99715.62
2023-05-16T06:56:55.822Z,99713.59
2023-05-16T06:59:58.288Z,99719.81
2023-05-16T07:03:00.680Z,99719.56
2023-05-16T07:06:03.367Z,99730.69
2023-05-16T07:09:05.617Z,99727.75
2023-05-16T07:12:08.395Z,99731.03
2023-05-16T07:15:10.973Z,99729.44
2023-05-16T07:18:13.533Z,99725.25
2023-05-16T07:21:15.929Z,99728.31
2023-05-16T07:24:18.472Z,99718.94
2023-05-16T07:27:23.410Z,99707.06
2023-05-16T07:30:26.280Z,99704.88
2023-05-16T07:33:28.568Z,99704.88
2023-05-16T07:36:31.244Z,99708.53
2023-05-16T07:39:33.983Z,99700.75
2023-05-16T07:42:38.629Z,99703.03
2023-05-16T07:45:41.139Z,99714.91
2023-05-16T07:48:43.817Z,99704.09
2023-05-16T07:51:46.052Z,99701.13
2023-05-16T07:54:48.588Z,99694.13
2023-05-16T07:57:50.966Z,99696.06
2023-05-16T08:00:53.544Z,99699.62
2023-05-16T08:03:56.278Z,99700.62
2023-05-16T08:06:58.474Z,99707.44
2023-05-16T08:10:01.014Z,99699.31
2023-05-16T08:13:04.046Z,99702.97
2023-05-16T08:16:06.956Z,99698.78
2023-05-16T08:19:09.300Z,99715.31
2023-05-16T08:22:11.908Z,99712.47
2023-05-16T08:25:14.152Z,99707.72
2023-05-16T08:28:16.771Z,99709.41
2023-05-16T08:31:19.111Z,99710.87
2023-05-16T08:34:21.743Z,99693.81
2023-05-16T08:37:23.920Z,99691.19
2023-05-16T08:40:27.603Z,99683.16
2023-05-16T08:43:29.897Z,99675.91
2023-05-16T08:46:35.860Z,99683.25
2023-05-16T08:49:41.401Z,99694.56
2023-05-16T08:52:44.436Z,99696.56
2023-05-16T08:55:48.374Z,99694.53
2023-05-16T08:58:55.135Z,99686.44
2023-05-16T09:01:57.577Z,99686.66
2023-05-16T09:05:00.311Z,99681.69
2023-05-16T09:08:02.877Z,99689.22
2023-05-16T09:11:05.565Z,99687.19
2023-05-16T09:14:07.846Z,99682.66
2023-05-16T09:17:12.529Z,99682.09
2023-05-16T09:20:24.209Z,99680.19
2023-05-16T09:23:29.515Z,99681.87
2023-05-16T09:26:36.544Z,99683.44
2023-05-16T09:29:43.430Z,99675.41
2023-05-16T09:32:46.005Z,99675.84
2023-05-16T09:35:56.206Z,99676.81
2023-05-16T09:38:58.504Z,99657.44
2023-05-16T09:42:01.784Z,99677.44
2023-05-16T09:45:04.485Z,99675.88
2023-05-16T09:48:15.038Z,99682.53
2023-05-16T09:51:22.201Z,99686.50
2023-05-16T09:54:34.977Z,99684.47
2023-05-16T09:57:39.524Z,99679.03
2023-05-16T10:00:42.035Z,99674.31
2023-05-16T10:03:47.753Z,99678.59
2023-05-16T10:06:52.505Z,99680.78
2023-05-16T10:09:56.090Z,99668.41
2023-05-16T10:13:01.741Z,99670.34
2023-05-16T10:16:11.675Z,99672.44
2023-05-16T10:19:15.364Z,99672.87
2023-05-16T10:22:19.466Z,99667.47
2023-05-16T10:25:39.224Z,99657.44
2023-05-16T10:28:42.315Z,99652.97
2023-05-16T10:31:44.816Z,99648.59
2023-05-16T10:34:47.493Z,99645.59
2023-05-16T10:37:50.889Z,99641.75
2023-05-16T10:40:53.950Z,99650.09
2023-05-16T10:43:57.822Z,99651.91
2023-05-16T10:47:01.416Z,99653.59
2023-05-16T10:50:03.865Z,99654.47
2023-05-16T10:53:18.084Z,99634.13
2023-05-16T10:56:25.229Z,99617.97
2023-05-16T10:59:28.625Z,99605.00
2023-05-16T11:02:34.479Z,99598.31
2023-05-16T11:05:37.180Z,99606.03
2023-05-16T11:09:17.921Z,99596.91
2023-05-16T11:12:20.739Z,99598.84
2023-05-16T11:15:32.575Z,99588.09
2023-05-16T11:18:50.731Z,99577.28
2023-05-16T11:22:27.455Z,99558.31
2023-05-16T11:25:41.411Z,99540.06
2023-05-16T11:28:44.086Z,99548.50
2023-05-16T11:31:48.205Z,99557.56
2023-05-16T11:34:51.915Z,99552.37
2023-05-16T11:37:54.411Z,99579.53
2023-05-16T11:41:05.750Z,99573.94
2023-05-16T11:44:11.964Z,99569.00
2023-05-16T11:47:16.135Z,99548.38
2023-05-16T11:50:21.069Z,99548.38
2023-05-16T11:53:23.409Z,99548.78
2023-05-16T11:56:27.440Z,99538.91
2023-05-16T11:59:29.852Z,99533.97
2023-05-16T12:02:32.762Z,99536.69
2023-05-16T12:05:35.962Z,99534.31
2023-05-16T12:08:38.506Z,99529.28
2023-05-16T12:11:43.289Z,99527.84
2023-05-16T12:14:46.207Z,99534.50
2023-05-16T12:17:49.247Z,99529.06
2023-05-16T12:20:52.416Z,99543.53
2023-05-16T12:24:01.588Z,99540.75
2023-05-16T12:27:03.880Z,99538.97
2023-05-16T12:30:09.481Z,99537.03
2023-05-16T12:33:14.488Z,99545.19
2023-05-16T12:36:17.236Z,99552.25
2023-05-16T12:39:21.004Z,99538.72
2023-05-16T12:42:23.544Z,99523.56
2023-05-16T12:45:28.253Z,99536.50
2023-05-16T12:48:35.276Z,99540.00
2023-05-16T12:51:37.593Z,99541.03
2023-05-16T12:54:40.140Z,99537.94
2023-05-16T12:57:44.526Z,99542.81
2023-05-16T13:00:47.013Z,99530.41
2023-05-16T13:03:49.376Z,99529.25
2023-05-16T13:09:58.510Z,99522.16
2023-05-16T13:13:01.132Z,99516.69
2023-05-16T13:16:04.256Z,99511.63
2023-05-16T13:19:07.992Z,99501.59
2023-05-16T13:22:10.373Z,99496.16
2023-05-16T13:25:12.986Z,99484.84
2023-05-16T13:28:15.160Z,99474.59
2023-05-16T13:31:17.833Z,99475.37
2023-05-16T13:34:20.189Z,99459.47
2023-05-16T13:37:24.506Z,99449.44
2023-05-16T13:40:27.840Z,99443.78
2023-05-16T13:43:30.517Z,99451.19
2023-05-16T13:46:32.819Z,99437.34
2023-05-16T13:49:35.722Z,99444.00
2023-05-16T13:52:38.842Z,99448.97
2023-05-16T13:55:41.887Z,99456.84
2023-05-16T13:58:59.706Z,99451.44
2023-05-16T14:02:05.118Z,99444.50
2023-05-16T14:05:08.653Z,99440.06
2023-05-16T14:08:10.881Z,99434.31
2023-05-16T14:11:13.531Z,99433.94
2023-05-16T14:14:15.856Z,99428.97
2023-05-16T14:17:18.416Z,99435.72
2023-05-16T14:20:20.733Z,99429.81
2023-05-16T14:23:23.399Z,99438.78
2023-05-16T14:26:26.608Z,99438.06
2023-05-16T14:29:29.373Z,99438.78
2023-05-16T14:32:32.087Z,99446.63
2023-05-16T14:35:34.918Z,99448.22
2023-05-16T14:38:37.172Z,99460.59
2023-05-16T14:41:40.073Z,99455.84
2023-05-16T14:44:42.296Z,99468.25
2023-05-16T14:47:44.969Z,99467.47
2023-05-16T14:50:47.525Z,99464.62
2023-05-16T14:53:50.033Z,99468.91
2023-05-16T14:56:52.246Z,99466.91
2023-05-16T14:59:54.745Z,99465.22
2023-05-16T15:02:56.970Z,99456.22
2023-05-16T15:06:00.155Z,99457.69
2023-05-16T15:09:03.708Z,99473.22
2023-05-16T15:12:08.020Z,99467.44
2023-05-16T15:15:16.244Z,99471.19
2023-05-16T15:18:19.115Z,99468.72
2023-05-16T15:21:21.331Z,99468.25
2023-05-16T15:24:25.027Z,99464.06
2023-05-16T15:27:27.336Z,99448.94
2023-05-16T15:30:29.907Z,99451.19
2023-05-16T15:33:32.059Z,99444.00
2023-05-16T15:36:35.079Z,99433.56
2023-05-16T15:39:37.416Z,99441.34
2023-05-16T15:42:42.053Z,99436.31
2023-05-16T15:45:44.923Z,99429.06
2023-05-16T15:48:47.402Z,99426.19
2023-05-16T15:51:51.068Z,99421.91
2023-05-16T15:54:53.544Z,99415.44
2023-05-16T15:57:58.402Z,99418.88
2023-05-16T16:01:00.971Z,99402.81
2023-05-16T16:04:04.072Z,99404.63
2023-05-16T16:07:06.393Z,99410.53
2023-05-16T16:10:09.358Z,99403.47
2023-05-16T16:13:11.910Z,99388.28
2023-05-16T16:16:15.685Z,99397.94
2023-05-16T16:19:18.088Z,99410.34
2023-05-16T16:22:22.468Z,99418.06
2023-05-16T16:25:25.024Z,99430.56
2023-05-16T16:28:27.650Z,99425.47
2023-05-16T16:31:29.925Z,99441.56
2023-05-16T16:34:32.420Z,99442.34
2023-05-16T16:37:35.226Z,99428.34
2023-05-16T16:40:37.932Z,99428.41
2023-05-16T16:43:40.244Z,99429.59
2023-05-16T16:46:42.778Z,99423.81
2023-05-16T16:49:45.602Z,99416.34
2023-05-16T16:52:48.079Z,99407.34
2023-05-16T16:55:50.373Z,99408.16
2023-05-16T16:58:53.344Z,99396.56
2023-05-16T17:01:55.674Z,99407.88
2023-05-16T17:04:58.137Z,99417.81
2023-05-16T17:08:00.341Z,99428.97
2023-05-16T17:11:05.323Z,99441.34
2023-05-16T17:14:10.530Z,99445.97
2023-05-16T17:17:13.416Z,99439.41
2023-05-16T17:20:16.000Z,99435.44
2023-05-16T17:23:18.545Z,99414.91
2023-05-16T17:26:20.768Z,99400.31
2023-05-16T17:29:23.957Z,99386.16
2023-05-16T17:32:26.761Z,99395.88
2023-05-16T17:35:29.819Z,99402.88
2023-05-16T17:38:32.332Z,99395.56
2023-05-16T17:41:35.504Z,99408.47
2023-05-16T17:44:37.782Z,99408.72
2023-05-16T17:47:40.752Z,99415.25
2023-05-16T17:50:43.575Z,99413.78
2023-05-16T17:53:46.086Z,99418.75
2023-05-16T17:56:50.319Z,99428.38
2023-05-16T17:59:52.863Z,99419.13
2023-05-16T18:02:55.527Z,99423.00
2023-05-16T18:05:58.120Z,99422.63
2023-05-16T18:09:01.081Z,99413.31
2023-05-16T18:12:03.849Z,99421.44
2023-05-16T18:15:06.668Z,99415.13
2023-05-16T18:18:09.332Z,99410.47
2023-05-16T18:21:11.650Z,99405.47
2023-05-16T18:24:15.952Z,99400.00
2023-05-16T18:27:18.224Z,99408.47
2023-05-16T18:30:21.007Z,99416.41
2023-05-16T18:33:23.279Z,99417.94
2023-05-16T18:36:25.830Z,99422.88
2023-05-16T18:39:28.125Z,99418.53
2023-05-16T18:42:30.745Z,99413.81
2023-05-16T18:45:33.853Z,99413.03
2023-05-16T18:48:36.484Z,99406.72
2023-05-16T18:51:39.987Z,99414.16
2023-05-16T18:54:42.460Z,99410.31
2023-05-16T18:57:45.608Z,99407.44
2023-05-16T19:00:48.356Z,99413.25
2023-05-16T19:03:50.830Z,99407.81
2023-05-16T19:06:56.245Z,99405.34
2023-05-16T19:09:59.727Z,99412.22
2023-05-16T19:13:08.141Z,99417.38
2023-05-16T19:16:10.413Z,99420.09
2023-05-16T19:19:12.988Z,99433.16
2023-05-16T19:22:15.338Z,99436.31
2023-05-16T19:25:17.785Z,99421.41
2023-05-16T19:28:20.099Z,99428.84
2023-05-16T19:31:22.602Z,99431.06
2023-05-16T19:34:26.586Z,99436.72
2023-05-16T19:37:29.224Z,99438.25
2023-05-16T19:40:34.023Z,99435.81
2023-05-16T19:43:36.480Z,99441.31
2023-05-16T19:46:39.189Z,99432.44
2023-05-16T19:49:41.670Z,99434.00
2023-05-16T19:52:43.897Z,99427.47
2023-05-16T19:55:47.886Z,99421.84
2023-05-16T19:58:50.121Z,99417.84
2023-05-16T20:01:52.703Z,99415.47
2023-05-16T20:04:55.209Z,99410.31
2023-05-16T20:07:57.402Z,99421.34
2023-05-16T20:10:59.909Z,99422.22
2023-05-16T20:14:02.124Z,99419.00
2023-05-16T20:17:04.648Z,99420.06
2023-05-16T20:20:08.685Z,99419.94
2023-05-16T20:23:11.239Z,99418.56
2023-05-16T20:26:16.310Z,99423.16
2023-05-16T20:29:18.865Z,99437.84
2023-05-16T20:32:21.360Z,99438.19
2023-05-16T20:35:24.766Z,99420.28
2023-05-16T20:38:26.984Z,99417.34
2023-05-16T20:41:29.575Z,99416.13
2023-05-16T20:44:33.672Z,99422.41
2023-05-16T20:47:36.329Z,99415.53
2023-05-16T20:50:38.948Z,99409.31
2023-05-16T20:53:41.524Z,99407.94
2023-05-16T20:56:43.740Z,99406.66
2023-05-16T20:59:46.252Z,99412.75
2023-05-16T21:02:48.515Z,99415.53
2023-05-16T21:05:51.613Z,99427.16
2023-05-16T21:08:53.918Z,99426.41
2023-05-16T21:11:58.532Z,99415.25
2023-05-16T21:15:00.792Z,99423.41
2023-05-16T21:18:03.357Z,99427.78
2023-05-16T21:21:05.971Z,99419.53
2023-05-16T21:24:08.464Z,99421.19
2023-05-16T21:27:10.952Z,99414.94
2023-05-16T21:30:13.824Z,99412.75
2023-05-16T21:33:16.258Z,99423.97
2023-05-16T21:36:19.840Z,99416.22
2023-05-16T21:39:22.082Z,99411.94
2023-05-16T21:42:24.648Z,99404.84
2023-05-16T21:45:27.056Z,99394.72
2023-05-16T21:48:29.762Z,99394.94
2023-05-16T21:51:32.010Z,99395.75
2023-05-16T21:54:34.567Z,99395.34
2023-05-16T21:57:36.780Z,99401.88
2023-05-16T22:00:39.372Z,99396.38
2023-05-16T22:03:42.034Z,99401.09
2023-05-16T22:06:44.259Z,99402.59
2023-05-16T22:09:50.776Z,99403.75
2023-05-16T22:12:53.019Z,99397.56
2023-05-16T22:16:04.054Z,99393.41
2023-05-16T22:19:07.669Z,99400.38
2023-05-16T22:22:10.962Z,99408.59
2023-05-16T22:25:13.204Z,99407.44
2023-05-16T22:28:15.677Z,99406.72
2023-05-16T22:31:17.872Z,99407.44
2023-05-16T22:34:20.477Z,99399.59
2023-05-16T22:37:22.708Z,99395.62
2023-05-16T22:40:26.763Z,99390.19
2023-05-16T22:43:29.010Z,99407.44
2023-05-16T22:46:31.453Z,99402.91
2023-05-16T22:49:33.681Z,99403.25
2023-05-16T22:52:41.049Z,99405.94
2023-05-16T22:55:43.277Z,99405.44
2023-05-16T22:58:45.749Z,99408.38
2023-05-16T23:01:48.059Z,99399.63
2023-05-16T23:04:50.577Z,99402.31
2023-05-16T23:07:52.839Z,99415.50
2023-05-16T23:10:55.765Z,99426.09
2023-05-16T23:13:57.994Z,99407.31
2023-05-16T23:17:00.522Z,99412.84
2023-05-16T23:20:02.950Z,99416.34
2023-05-16T23:23:05.560Z,99426.81
2023-05-16T23:26:07.713Z,99423.25
2023-05-16T23:29:10.260Z,99418.88
2023-05-16T23:32:12.469Z,99428.16
2023-05-16T23:35:14.975Z,99428.06
2023-05-16T23:38:17.136Z,99420.63
2023-05-16T23:41:19.652Z,99428.03
2023-05-16T23:44:21.834Z,99426.41
2023-05-16T23:47:24.447Z,99421.34
2023-05-16T23:50:26.652Z,99424.44
2023-05-16T23:53:31.002Z,99423.16
2023-05-16T23:56:33.210Z,99419.56
2023-05-16T23:59:35.697Z,99422.22
